Flight Track Log - Related Links

Times and Time Zones

All times are in EDT time to prevent confusion due to time zone crossing. See the UPS2844 flight status page for this flight to view local times or setup timezone preferences in your user account.

Time Position Orientation Groundspeed Altitude Reporting Facility
EDT Latitude Longitude Course Direction KTS MPH feet Rate Location/Type
Fri 04:28:40 PM 38.2560 -85.7927 328° Northwest 241 277 5,100  Level FlightAware ADS-B
Fri 04:29:00 PM 38.2762 -85.8194 296° West 247 284 6,100 3,184 Climbing FlightAware ADS-B
Fri 04:29:29 PM 38.2765 -85.8632 267° West 255 293 7,700 3,220 Climbing FlightAware ADS-B
Fri 04:29:41 PM 38.2749 -85.8772 253° West 266 306 8,300 3,188 Climbing FlightAware ADS-B
Fri 04:30:01 PM 38.2618 -85.9041 219° Southwest 287 330 9,400 2,618 Climbing FlightAware ADS-B
Fri 04:30:36 PM 38.2234 -85.9459 222° Southwest 289 333 10,700 2,513 Climbing FlightAware ADS-B
Fri 04:31:58 PM 38.1356 -86.0520 224° Southwest 346 398 14,300 3,207 Climbing FlightAware ADS-B (KIXA)
Fri 04:32:32 PM 38.1064 -86.0882 224° Southwest 359 413 16,900 3,404 Climbing FlightAware ADS-B (KIXA)
Fri 04:33:42 PM 38.0219 -86.2043 243° Southwest 360 414 20,200 2,894 Climbing FlightAware ADS-B (KIXA)
Fri 04:33:57 PM 38.0128 -86.2371 258° West 356 410 21,000 2,933 Climbing FlightAware ADS-B (KIXA)
Fri 04:34:27 PM 38.0077 -86.2991 268° West 357 411 22,400 3,070 Climbing FlightAware ADS-B (KIXA)
Fri 04:34:40 PM 38.0079 -86.3286 271° West 357 411 23,200 2,885 Climbing FlightAware ADS-B
Fri 04:35:19 PM 38.0129 -86.4120 274° West 366 421 24,900 2,314 Climbing FlightAware ADS-B (KIXA)
Fri 04:35:50 PM 38.0172 -86.4806 275° West 376 433 25,900 2,091 Climbing FlightAware ADS-B (KIXA)
Fri 04:36:25 PM 38.0219 -86.5530 275° West 381 438 27,200 2,250 Climbing FlightAware ADS-B
Fri 04:36:38 PM 38.0221 -86.5572 274° West 385 443 27,700 2,449 Climbing FlightAware ADS-B (KIXA)
Fri 04:37:14 PM 38.0281 -86.6560 274° West 389 448 29,200 2,612 Climbing FlightAware ADS-B
Fri 04:38:03 PM 38.0343 -86.7633 274° West 383 441 31,400 2,488 Climbing FlightAware ADS-B
Fri 04:38:36 PM 38.0398 -86.8525 275° West 378 435 32,600 2,091 Climbing FlightAware ADS-B
Fri 04:39:09 PM 38.0431 -86.9047 275° West 384 442 33,700 1,826 Climbing FlightAware ADS-B
Fri 04:39:45 PM 38.0478 -86.9774 274° West 380 437 34,700 1,130 Climbing FlightAware ADS-B
Fri 04:40:18 PM 38.0514 -87.0348 275° West 378 435 35,000 343 Climbing FlightAware ADS-B
Fri 04:40:55 PM 38.0583 -87.1486 274° West 377 434 35,100 88 Climbing FlightAware ADS-B
Fri 04:41:26 PM 38.0626 -87.2194 274° West 380 437 35,100 -97 Level FlightAware ADS-B
Fri 04:41:57 PM 38.0672 -87.2971 274° West 385 443 35,000  Descending FlightAware ADS-B
Fri 04:42:35 PM 38.0724 -87.3846 274° West 387 445 35,100 75 Climbing FlightAware ADS-B
Fri 04:43:17 PM 38.0771 -87.4658 274° West 386 444 35,100  Level FlightAware ADS-B
Fri 04:43:55 PM 38.0823 -87.5572 274° West 386 444 35,100  Level FlightAware ADS-B
Fri 04:44:27 PM 38.0865 -87.6326 274° West 386 444 35,100  Level FlightAware ADS-B
Fri 04:45:05 PM 38.0917 -87.7227 274° West 387 445 35,100 -87 Level FlightAware ADS-B
Fri 04:45:36 PM 38.0950 -87.7823 274° West 386 444 35,000  Descending FlightAware ADS-B
Fri 04:46:06 PM 38.0991 -87.8594 274° West 386 444 35,100 783 Climbing FlightAware ADS-B
Fri 04:46:45 PM 38.1040 -87.9479 274° West 385 443 35,900 619 Climbing FlightAware ADS-B
Fri 04:47:43 PM 38.1108 -88.0794 274° West 395 455 36,100 130 Climbing FlightAware ADS-B
Fri 04:48:17 PM 38.1150 -88.1584 274° West 395 455 36,100  Level FlightAware ADS-B
Fri 04:49:05 PM 38.1202 -88.2589 274° West 391 450 36,100 -76 Level FlightAware ADS-B
Fri 04:49:36 PM 38.1240 -88.3338 274° West 389 448 36,000 -86 Descending FlightAware ADS-B
Fri 04:50:15 PM 38.1283 -88.4195 274° West 387 445 36,000  Level FlightAware ADS-B
Fri 04:50:47 PM 38.1323 -88.5012 274° West 385 443 36,000 97 Level FlightAware ADS-B
Fri 04:51:17 PM 38.1355 -88.5648 274° West 384 442 36,100  Climbing FlightAware ADS-B
Fri 04:51:57 PM 38.1398 -88.6566 273° West 383 441 36,000  Descending FlightAware ADS-B
Fri 04:52:37 PM 38.1441 -88.7459 273° West 384 442 36,100 86 Climbing FlightAware ADS-B
Fri 04:53:07 PM 38.1471 -88.8125 273° West 384 442 36,100  Level FlightAware ADS-B
Fri 04:53:47 PM 38.1513 -88.9031 273° West 386 444 36,100  Level FlightAware ADS-B
Fri 04:54:27 PM 38.1550 -88.9852 273° West 387 445 36,100  Level FlightAware ADS-B
Fri 04:54:58 PM 38.1585 -89.0630 273° West 387 445 36,100  Level FlightAware ADS-B
Fri 04:55:28 PM 38.1614 -89.1302 273° West 385 443 36,100  Level FlightAware ADS-B
Fri 04:55:59 PM 38.1645 -89.2006 273° West 381 438 36,100  Level FlightAware ADS-B
Fri 04:56:39 PM 38.1682 -89.2896 273° West 376 433 36,100  Level FlightAware ADS-B
Fri 04:57:17 PM 38.1716 -89.3724 273° West 372 428 36,100 -71 Level FlightAware ADS-B
Fri 04:58:04 PM 38.1759 -89.4746 273° West 369 425 36,000 -78 Descending FlightAware ADS-B
Fri 04:58:34 PM 38.1776 -89.5157 273° West 365 420 36,000 58 Level FlightAware ADS-B
Fri 04:59:48 PM 38.1836 -89.6672 273° West 362 417 36,100  Climbing FlightAware ADS-B
Fri 05:00:53 PM 38.1889 -89.8081 273° West 364 419 36,000 -47 Descending Kansas City Center
Fri 05:01:55 PM 38.1936 -89.9356 273° West 363 418 36,000  Level Kansas City Center
Fri 05:02:57 PM 38.1992 -90.0889 273° West 362 417 36,000  Level Kansas City Center
Fri 05:03:59 PM 38.2036 -90.2169 273° West 362 417 36,000  Level Kansas City Center
Fri 05:05:01 PM 38.2081 -90.3458 273° West 363 418 36,000 48 Level Kansas City Center
Fri 05:06:03 PM 38.2122 -90.4756 272° West 364 419 36,100 48 Climbing Kansas City Center
Fri 05:07:05 PM 38.2164 -90.6064 272° West 366 421 36,100  Level Kansas City Center
Fri 05:08:08 PM 38.2203 -90.7378 272° West 368 423 36,100  Level Kansas City Center
Fri 05:09:10 PM 38.2331 -90.8681 277° West 369 425 36,100 -48 Level Kansas City Center
Fri 05:10:12 PM 38.2600 -91.0211 283° West 369 425 36,000  Descending Kansas City Center
Fri 05:11:14 PM 38.2833 -91.1483 283° West 369 425 36,100  Climbing Kansas City Center
Fri 05:12:16 PM 38.3067 -91.2756 283° West 369 425 36,000  Descending Kansas City Center
Fri 05:13:18 PM 38.3303 -91.4053 283° West 369 425 36,100 48 Climbing Kansas City Center
Fri 05:14:20 PM 38.3533 -91.5328 283° West 369 425 36,100  Level Kansas City Center
Fri 05:15:22 PM 38.3761 -91.6603 283° West 369 425 36,100 -48 Level Kansas City Center
Fri 05:16:24 PM 38.4033 -91.8133 283° West 370 426 36,000  Descending Kansas City Center
Fri 05:17:26 PM 38.4258 -91.9411 283° West 370 426 36,100  Climbing Kansas City Center
Fri 05:18:28 PM 38.4483 -92.0683 283° West 370 426 36,000  Descending Kansas City Center
Fri 05:19:30 PM 38.4706 -92.1958 283° West 370 426 36,100 48 Climbing Kansas City Center
Fri 05:20:32 PM 38.4928 -92.3236 283° West 370 426 36,100 -48 Level Kansas City Center
Fri 05:21:34 PM 38.5189 -92.4767 282° West 370 426 36,000 -48 Descending Kansas City Center
Fri 05:22:36 PM 38.5406 -92.6042 282° West 369 425 36,000 48 Level Kansas City Center
Fri 05:23:38 PM 38.5622 -92.7317 282° West 369 425 36,100  Climbing Kansas City Center
Fri 05:24:40 PM 38.5839 -92.8597 282° West 369 425 36,000 -48 Descending Kansas City Center
Fri 05:25:42 PM 38.6053 -92.9878 282° West 369 425 36,000 48 Level Kansas City Center
Fri 05:26:45 PM 38.6264 -93.1158 282° West 369 425 36,100  Climbing Kansas City Center
Fri 05:27:47 PM 38.6517 -93.2700 282° West 369 425 36,000  Descending Kansas City Center
Fri 05:28:49 PM 38.6728 -93.3989 282° West 370 426 36,100 48 Climbing Kansas City Center
Fri 05:29:51 PM 38.6936 -93.5278 282° West 370 426 36,100 -48 Level Kansas City Center
Fri 05:30:53 PM 38.7142 -93.6561 282° West 369 425 36,000 -48 Descending Kansas City Center
Fri 05:31:55 PM 38.7364 -93.7956 282° West 368 423 36,000  Level Kansas City Center
Fri 05:32:57 PM 38.7558 -93.9183 282° West 368 423 36,000  Level Kansas City Center
Fri 05:33:59 PM 38.7775 -94.0608 281° West 364 419 36,000  Level Kansas City Center
Fri 05:35:01 PM 38.7967 -94.1836 281° West 364 419 36,000  Level Kansas City Center
Fri 05:36:03 PM 38.8197 -94.3286 282° West 368 423 36,000  Level Kansas City Center
Fri 05:37:05 PM 38.8381 -94.4528 281° West 368 423 36,000  Level Kansas City Center
Fri 05:38:07 PM 38.8603 -94.5986 281° West 370 426 36,000  Level Kansas City Center
Fri 05:39:09 PM 38.8797 -94.7231 281° West 371 427 36,000  Level Kansas City Center
Fri 05:40:11 PM 38.8983 -94.8494 281° West 371 427 36,000  Level Kansas City Center
Fri 05:41:13 PM 38.9194 -94.9961 281° West 372 428 36,000  Level Kansas City Center
Fri 05:42:15 PM 38.9375 -95.1228 280° West 372 428 36,000  Level Kansas City Center
Fri 05:43:17 PM 38.9589 -95.2694 281° West 372 428 36,000  Level Kansas City Center
Fri 05:44:19 PM 38.9772 -95.3972 280° West 373 429 36,000  Level Kansas City Center
Fri 05:45:21 PM 38.9956 -95.5231 281° West 372 428 36,000  Level Kansas City Center
Fri 05:46:24 PM 39.0156 -95.6706 280° West 373 429 36,000  Level Kansas City Center
Fri 05:47:26 PM 39.0344 -95.7961 281° West 373 429 36,000  Level Kansas City Center
Fri 05:48:28 PM 39.0536 -95.9425 280° West 371 427 36,000  Level Kansas City Center
Fri 05:49:30 PM 39.0711 -96.0694 280° West 372 428 36,000  Level Kansas City Center
Fri 05:50:32 PM 39.0914 -96.2161 280° West 372 428 36,000  Level Kansas City Center
Fri 05:51:34 PM 39.1083 -96.3411 280° West 372 428 36,000  Level Kansas City Center
Fri 05:52:36 PM 39.1289 -96.4881 280° West 372 428 36,000  Level Kansas City Center
Fri 05:53:38 PM 39.1439 -96.6150 279° West 375 432 36,000  Level Kansas City Center
Fri 05:54:40 PM 39.1636 -96.7617 280° West 374 430 36,000  Level Kansas City Center
Fri 05:55:42 PM 39.1806 -96.8867 280° West 373 429 36,000  Level Kansas City Center
Fri 05:56:44 PM 39.1967 -97.0114 280° West 373 429 36,000  Level Kansas City Center
Fri 05:57:46 PM 39.2147 -97.1589 279° West 372 428 36,000  Level Kansas City Center
Fri 05:58:48 PM 39.2325 -97.2864 280° West 376 433 36,000  Level Kansas City Center
Fri 05:59:50 PM 39.2489 -97.4311 278° West 369 425 36,000  Level Kansas City Center
Fri 06:00:52 PM 39.2672 -97.5708 280° West 377 434 36,000  Level Kansas City Center
Fri 06:01:54 PM 39.2828 -97.7056 279° West 380 437 36,000  Level Kansas City Center
Fri 06:02:56 PM 39.2981 -97.8394 278° West 379 436 36,000  Level Kansas City Center
Fri 06:03:59 PM 39.3178 -97.9844 280° West 370 426 36,000  Level Kansas City Center
Fri 06:05:01 PM 39.3333 -98.1133 279° West 374 430 36,000  Level Kansas City Center
Fri 06:06:03 PM 39.3508 -98.2694 278° West 387 445 36,000  Level Kansas City Center
Fri 06:07:05 PM 39.3664 -98.4053 278° West 386 444 36,000  Level Kansas City Center
Fri 06:08:07 PM 39.3825 -98.5406 279° West 380 437 36,000  Level Kansas City Center
Fri 06:09:09 PM 39.3989 -98.6742 279° West 376 433 36,000  Level Kansas City Center
Fri 06:10:11 PM 39.4128 -98.8031 278° West 378 435 36,000  Level Kansas City Center
Fri 06:11:13 PM 39.4258 -98.9394 277° West 389 448 36,000  Level Kansas City Center
Fri 06:12:43 PM 39.4472 -99.1311 278° West 381 438 36,000  Level Denver Center
Fri 06:13:45 PM 39.4664 -99.2992 278° West 383 441 36,000  Level Denver Center
Fri 06:14:47 PM 39.4811 -99.4367 278° West 383 441 36,000  Level Denver Center
Fri 06:15:49 PM 39.4958 -99.5758 278° West 384 442 36,000  Level Denver Center
Fri 06:16:51 PM 39.5106 -99.7131 278° West 384 442 36,000  Level Denver Center
Fri 06:17:53 PM 39.5278 -99.8789 278° West 387 445 36,000  Level Denver Center
Fri 06:18:55 PM 39.5408 -100.0128 277° West 388 447 36,000  Level Denver Center
Fri 06:19:57 PM 39.5539 -100.1450 277° West 389 448 36,000  Level Denver Center
Fri 06:20:59 PM 39.5694 -100.3019 277° West 390 449 36,000  Level Denver Center
Fri 06:22:01 PM 39.5833 -100.4347 278° West 390 449 36,000  Level Denver Center
Fri 06:23:03 PM 39.5978 -100.5925 277° West 392 451 36,000  Level Denver Center
Fri 06:24:05 PM 39.6108 -100.7278 277° West 392 451 36,000  Level Denver Center
Fri 06:25:07 PM 39.6264 -100.8828 277° West 392 451 36,000  Level Denver Center
Fri 06:26:09 PM 39.6386 -101.0167 277° West 391 450 36,000  Level Denver Center
Fri 06:27:11 PM 39.6522 -101.1717 277° West 390 449 36,000  Level Denver Center
Fri 06:28:12 PM 39.6639 -101.3019 277° West 384 442 36,000  Level Denver Center
Fri 06:29:14 PM 39.6758 -101.4328 277° West 383 441 36,000  Level Denver Center
Fri 06:30:17 PM 39.6881 -101.5842 276° West 382 440 36,000  Level Denver Center
Fri 06:31:18 PM 39.7008 -101.7125 277° West 380 437 36,000  Level Denver Center
Fri 06:32:20 PM 39.7139 -101.8628 276° West 377 434 36,000  Level Denver Center
Fri 06:33:34 PM 39.7281 -102.0344 276° West 375 432 36,000  Level Denver Center
Fri 06:34:36 PM 39.7381 -102.1622 276° West 375 432 36,000  Level Denver Center
Fri 06:35:38 PM 39.7481 -102.2908 276° West 374 430 36,000  Level Denver Center
Fri 06:36:40 PM 39.7614 -102.4403 277° West 373 429 36,000  Level Denver Center
Fri 06:37:41 PM 39.7714 -102.5681 276° West 373 429 36,000  Level Denver Center
Fri 06:38:43 PM 39.7828 -102.7178 276° West 373 429 36,000  Level Denver Center
Fri 06:39:45 PM 39.7933 -102.8586 276° West 374 430 36,000  Level Denver Center
Fri 06:40:47 PM 39.8031 -102.9944 275° West 375 432 36,000  Level Denver Center
Fri 06:41:48 PM 39.8128 -103.1306 275° West 379 436 36,000  Level Denver Center
Fri 06:42:50 PM 39.8231 -103.2689 276° West 382 440 36,000  Level Denver Center
Fri 06:43:52 PM 39.8336 -103.4078 276° West 385 443 36,000  Level Denver Center
Fri 06:44:54 PM 39.8422 -103.5453 275° West 385 443 36,000  Level Denver Center
Fri 06:45:55 PM 39.8528 -103.6836 276° West 385 443 36,000  Level Denver Center
Fri 06:46:57 PM 39.8644 -103.8494 275° West 385 443 36,000  Level Denver Center
Fri 06:47:59 PM 39.8739 -103.9875 275° West 385 443 36,000  Level Denver Center
Fri 06:49:00 PM 39.8822 -104.1253 275° West 385 443 36,000  Level Denver Center
Fri 06:50:02 PM 39.8911 -104.2619 275° West 385 443 36,000  Level Denver Center
Fri 06:51:15 PM 39.9003 -104.4011 275° West 385 443 36,000  Level Denver Center
Fri 06:52:17 PM 39.9111 -104.5647 275° West 385 443 36,000  Level Denver Center
Fri 06:53:19 PM 39.9203 -104.7294 274° West 385 443 36,000  Level Denver Center
Fri 06:54:20 PM 39.9272 -104.8372 275° West 385 443 36,000  Level Denver Center
Fri 06:55:22 PM 39.9361 -104.9972 274° West 376 433 36,000  Level Denver Center
Fri 06:56:24 PM 39.9439 -105.1319 274° West 376 433 36,000  Level Denver Center
Fri 06:57:25 PM 39.9511 -105.2644 274° West 374 430 36,000  Level Denver Center
Fri 06:58:27 PM 39.9586 -105.3961 274° West 371 427 36,000  Level Denver Center
Fri 06:59:29 PM 39.9672 -105.5575 274° West 371 427 36,000  Level Denver Center
Fri 07:00:30 PM 39.9733 -105.6914 273° West 371 427 36,000  Level Denver Center
Fri 07:01:32 PM 39.9814 -105.8269 274° West 373 429 36,000  Level Denver Center
Fri 07:02:34 PM 39.9869 -105.9650 273° West 378 435 36,000  Level Denver Center
Fri 07:03:35 PM 39.9939 -106.1036 274° West 381 438 36,000  Level Denver Center
Fri 07:04:37 PM 40.0000 -106.2417 273° West 382 440 36,000  Level Denver Center
Fri 07:05:39 PM 40.0064 -106.3825 273° West 388 447 36,000  Level Denver Center
Fri 07:06:40 PM 40.0150 -106.5461 274° West 389 448 36,000  Level Denver Center
Fri 07:07:42 PM 40.0211 -106.6814 273° West 389 448 36,000  Level Denver Center
Fri 07:08:44 PM 40.0269 -106.8386 273° West 390 449 36,000  Level Denver Center
Fri 07:09:57 PM 40.0328 -106.9722 273° West 389 448 36,000  Level Denver Center
Fri 07:10:59 PM 40.0400 -107.1528 273° West 389 448 36,000  Level Denver Center
Fri 07:12:01 PM 40.0453 -107.2867 273° West 389 448 36,000  Level Denver Center
Fri 07:13:03 PM 40.0517 -107.4439 273° West 389 448 36,000  Level Denver Center
Fri 07:14:04 PM 40.0558 -107.5764 272° West 387 445 36,000  Level Denver Center
Fri 07:15:06 PM 40.0611 -107.7306 273° West 385 443 36,000  Level Denver Center
Fri 07:16:07 PM 40.0642 -107.8411 272° West 385 443 36,000  Level Denver Center
Fri 07:17:22 PM 40.0722 -108.0397 273° West 385 443 36,000  Level Denver Center
Fri 07:18:36 PM 40.0794 -108.1742 274° West 386 444 36,000  Level Denver Center
Fri 07:19:38 PM 40.0864 -108.3569 273° West 394 453 36,000  Level Denver Center
Fri 07:20:40 PM 40.0936 -108.5142 273° West 392 451 36,000  Level Denver Center
Fri 07:21:42 PM 40.0986 -108.6458 273° West 386 444 36,000  Level Denver Center
Fri 07:22:44 PM 40.1044 -108.7917 273° West 366 421 36,000  Level Denver Center
Fri 07:28:55 PM 40.1333 -109.5933 273° West 370 426 36,000 -139 Level Denver Center
Fri 07:29:57 PM 40.1378 -109.7417 272° West 370 426 35,000 -968 Descending Denver Center
Fri 07:30:59 PM 40.1419 -109.8711 272° West 369 425 34,000 -484 Descending Denver Center
Fri 07:32:01 PM 40.1461 -110.0231 272° West 371 427 34,000  Level Denver Center
Fri 07:33:03 PM 40.1500 -110.1544 272° West 375 432 34,000  Level Denver Center
Fri 07:34:28 PM 40.1467 -110.3489 269° West 375 432 34,000  Level Salt Lake Center
Fri 07:35:30 PM 40.1456 -110.5006 269° West 375 432 34,000  Level Salt Lake Center
Fri 07:36:31 PM 40.1439 -110.6336 269° West 379 436 34,000 -976 Level Salt Lake Center
Fri 07:37:33 PM 40.1425 -110.7644 269° West 379 436 32,000 -2,371 Descending Salt Lake Center
Fri 07:38:35 PM 40.1403 -110.9189 269° West 379 436 29,100 -2,585 Descending Salt Lake Center
Fri 07:39:36 PM 40.1381 -111.0592 269° West 381 438 26,700 -2,293 Descending Salt Lake Center
Fri 07:40:38 PM 40.1356 -111.1972 269° West 380 437 24,400 -2,274 Descending Salt Lake Center
Fri 07:41:40 PM 40.1339 -111.3383 269° West 386 444 22,000 -2,368 Descending Salt Lake Center
Fri 07:42:32 PM 40.1278 -111.4725 267° West 378 435 19,900 -1,525 Descending Salt Lake Center
Fri 07:43:38 PM 40.1517 -111.6217 282° West 367 422 19,000 -843 Descending Salt Lake Center
Fri 07:44:33 PM 40.2075 -111.7178 307° West 366 421 18,200 -1,241 Descending Salt Lake Center
Fri 07:45:34 PM 40.2911 -111.7906 326° Northwest 361 415 16,600 -1,541 Descending Salt Lake Center
Fri 07:45:47 PM 40.3094 -111.7983 342° North 364 419 16,300 -1,377 Descending Salt Lake Center
Fri 07:46:35 PM 40.3761 -111.8603 325° Northwest 360 414 15,200 -1,279 Descending Salt Lake Center
Fri 07:46:48 PM 40.3936 -111.8706 336° Northwest 361 415 15,000 -1,400 Descending Salt Lake Center
Fri 07:47:35 PM 40.4667 -111.9367 325° Northwest 379 436 13,800 -1,355 Descending Salt Lake Center
Fri 07:47:50 PM 40.4822 -111.9464 335° Northwest 376 433 13,600 -787 Descending Salt Lake Center
Fri 07:48:36 PM 40.5525 -112.0119 325° Northwest 371 427 13,000 -581 Descending Salt Lake Center
Fri 07:48:52 PM 40.5683 -112.0208 337° Northwest 371 427 13,000 -1,377 Level Salt Lake Center
Fri 07:49:37 PM 40.6408 -112.0781 329° Northwest 353 406 11,600 -1,548 Descending Salt Lake Center
Fri 07:49:54 PM 40.6558 -112.0800 354° North 347 399 11,400 -590 Descending Salt Lake Center
Fri 07:50:38 PM 40.7297 -112.0931 352° North 312 359 11,000 -387 Descending Salt Lake Center
Fri 07:50:56 PM 40.7442 -112.0906 North 308 354 11,000 100 Level Salt Lake Center
Fri 07:51:38 PM 40.8089 -112.1006 353° North 273 314 11,100  Climbing Salt Lake Center
Fri 07:51:57 PM 40.8214 -112.1003 North 277 319 11,000 -689 Descending Salt Lake Center
Fri 07:52:39 PM 40.8878 -112.1078 355° North 277 319 10,400 -1,258 Descending Salt Lake Center
Fri 07:52:59 PM 40.9131 -112.1108 355° North 275 316 9,700 -1,672 Descending Salt Lake Center
Fri 07:53:40 PM 40.9517 -112.0833 28° Northeast 251 289 8,700 -1,645 Descending Salt Lake Center
Fri 07:54:01 PM 40.9550 -112.0531 82° East 241 277 8,000 -1,446 Descending Salt Lake Center
Fri 07:55:03 PM 40.9331 -111.9922 116° Southeast 202 232 6,700 -1,119 Descending Salt Lake Center
Fri 07:55:59 PM 40.8836 -111.9872 176° South 172 198 5,800 -872 Descending Salt Lake Center
Fri 07:57:00 PM 40.8442 -111.9836 176° South 138 159 5,000 -698 Descending Salt Lake Center
Fri 07:58:08 PM 40.8050 -111.9761 172° South 144 166 4,300 -618 Descending Salt Lake Center

Login

Don't have an account? Register now (free) for customized features, flight alerts, and more!